sensor_id;sensor_type;location;lat;lon;timestamp;P1;durP1;ratioP1;P2;durP2;ratioP2
20324;SDS011;10320;49.482;11.256;2022-09-28T00:00:07;6.57;;;3.90;;
20324;SDS011;10320;49.482;11.256;2022-09-28T00:02:34;5.77;;;3.60;;
20324;SDS011;10320;49.482;11.256;2022-09-28T00:05:00;4.47;;;3.40;;
20324;SDS011;10320;49.482;11.256;2022-09-28T00:07:27;4.93;;;3.40;;
20324;SDS011;10320;49.482;11.256;2022-09-28T00:09:53;6.70;;;4.10;;
20324;SDS011;10320;49.482;11.256;2022-09-28T00:12:19;5.20;;;4.07;;
20324;SDS011;10320;49.482;11.256;2022-09-28T00:14:46;4.13;;;3.67;;
20324;SDS011;10320;49.482;11.256;2022-09-28T00:17:12;4.33;;;3.60;;
20324;SDS011;10320;49.482;11.256;2022-09-28T00:19:40;5.33;;;3.40;;
20324;SDS011;10320;49.482;11.256;2022-09-28T00:22:07;4.17;;;3.53;;
20324;SDS011;10320;49.482;11.256;2022-09-28T00:24:34;6.67;;;3.50;;
20324;SDS011;10320;49.482;11.256;2022-09-28T00:27:00;5.13;;;3.23;;
20324;SDS011;10320;49.482;11.256;2022-09-28T00:29:27;5.70;;;3.50;;
20324;SDS011;10320;49.482;11.256;2022-09-28T00:31:56;5.43;;;3.40;;
20324;SDS011;10320;49.482;11.256;2022-09-28T00:34:24;3.40;;;3.10;;
20324;SDS011;10320;49.482;11.256;2022-09-28T00:37:00;4.03;;;3.23;;
20324;SDS011;10320;49.482;11.256;2022-09-28T00:39:26;6.60;;;3.93;;
20324;SDS011;10320;49.482;11.256;2022-09-28T00:41:55;4.17;;;3.73;;
20324;SDS011;10320;49.482;11.256;2022-09-28T00:46:55;5.20;;;3.10;;
20324;SDS011;10320;49.482;11.256;2022-09-28T00:49:28;4.23;;;3.10;;
20324;SDS011;10320;49.482;11.256;2022-09-28T00:51:56;5.57;;;3.43;;
20324;SDS011;10320;49.482;11.256;2022-09-28T00:54:23;3.50;;;3.00;;
20324;SDS011;10320;49.482;11.256;2022-09-28T00:56:50;5.50;;;3.50;;
20324;SDS011;10320;49.482;11.256;2022-09-28T00:59:16;4.17;;;2.97;;
20324;SDS011;10320;49.482;11.256;2022-09-28T01:01:42;4.47;;;3.13;;
20324;SDS011;10320;49.482;11.256;2022-09-28T01:04:08;6.77;;;3.00;;
20324;SDS011;10320;49.482;11.256;2022-09-28T01:06:35;3.37;;;3.07;;
20324;SDS011;10320;49.482;11.256;2022-09-28T01:09:03;7.07;;;3.00;;
20324;SDS011;10320;49.482;11.256;2022-09-28T01:11:30;4.43;;;2.60;;
20324;SDS011;10320;49.482;11.256;2022-09-28T01:13:56;4.90;;;2.77;;
20324;SDS011;10320;49.482;11.256;2022-09-28T01:21:48;2.87;;;2.17;;
20324;SDS011;10320;49.482;11.256;2022-09-28T01:29:35;2.30;;;2.10;;
20324;SDS011;10320;49.482;11.256;2022-09-28T01:32:11;3.27;;;2.00;;
20324;SDS011;10320;49.482;11.256;2022-09-28T01:35:12;4.30;;;2.20;;
20324;SDS011;10320;49.482;11.256;2022-09-28T01:37:51;3.10;;;2.13;;
20324;SDS011;10320;49.482;11.256;2022-09-28T01:40:18;2.67;;;1.90;;
20324;SDS011;10320;49.482;11.256;2022-09-28T01:42:45;3.33;;;2.00;;
20324;SDS011;10320;49.482;11.256;2022-09-28T01:45:17;2.87;;;2.20;;
20324;SDS011;10320;49.482;11.256;2022-09-28T01:47:46;4.03;;;2.00;;
20324;SDS011;10320;49.482;11.256;2022-09-28T01:50:14;3.33;;;2.03;;
20324;SDS011;10320;49.482;11.256;2022-09-28T01:52:43;2.00;;;1.80;;
20324;SDS011;10320;49.482;11.256;2022-09-28T01:55:18;2.10;;;1.90;;
20324;SDS011;10320;49.482;11.256;2022-09-28T01:57:49;2.93;;;1.90;;
20324;SDS011;10320;49.482;11.256;2022-09-28T02:00:16;2.03;;;1.67;;
20324;SDS011;10320;49.482;11.256;2022-09-28T02:02:45;2.40;;;1.90;;
20324;SDS011;10320;49.482;11.256;2022-09-28T02:05:14;2.00;;;1.40;;
20324;SDS011;10320;49.482;11.256;2022-09-28T02:07:49;2.07;;;1.70;;
20324;SDS011;10320;49.482;11.256;2022-09-28T02:10:19;2.00;;;1.50;;
20324;SDS011;10320;49.482;11.256;2022-09-28T02:12:51;1.70;;;1.60;;
20324;SDS011;10320;49.482;11.256;2022-09-28T02:15:20;5.10;;;1.87;;
20324;SDS011;10320;49.482;11.256;2022-09-28T02:17:47;1.50;;;1.40;;
20324;SDS011;10320;49.482;11.256;2022-09-28T02:20:14;2.50;;;1.80;;
20324;SDS011;10320;49.482;11.256;2022-09-28T02:22:50;1.67;;;1.57;;
20324;SDS011;10320;49.482;11.256;2022-09-28T02:25:22;3.23;;;1.70;;
20324;SDS011;10320;49.482;11.256;2022-09-28T02:28:00;1.50;;;1.40;;
20324;SDS011;10320;49.482;11.256;2022-09-28T02:30:27;3.73;;;1.70;;
20324;SDS011;10320;49.482;11.256;2022-09-28T02:32:55;3.10;;;1.70;;
20324;SDS011;10320;49.482;11.256;2022-09-28T02:35:22;3.73;;;1.83;;
20324;SDS011;10320;49.482;11.256;2022-09-28T02:37:48;2.57;;;1.50;;
20324;SDS011;10320;49.482;11.256;2022-09-28T02:40:15;3.83;;;1.40;;
20324;SDS011;10320;49.482;11.256;2022-09-28T02:42:44;1.37;;;1.27;;
20324;SDS011;10320;49.482;11.256;2022-09-28T02:58:04;1.80;;;1.60;;
20324;SDS011;10320;49.482;11.256;2022-09-28T03:00:40;2.00;;;1.40;;
20324;SDS011;10320;49.482;11.256;2022-09-28T03:03:20;3.00;;;1.50;;
20324;SDS011;10320;49.482;11.256;2022-09-28T03:08:38;1.67;;;1.37;;
20324;SDS011;10320;49.482;11.256;2022-09-28T03:11:20;2.47;;;1.70;;
20324;SDS011;10320;49.482;11.256;2022-09-28T03:13:47;3.97;;;1.60;;
20324;SDS011;10320;49.482;11.256;2022-09-28T03:16:15;2.53;;;1.70;;
20324;SDS011;10320;49.482;11.256;2022-09-28T03:18:41;2.07;;;1.70;;
20324;SDS011;10320;49.482;11.256;2022-09-28T03:21:08;2.73;;;1.67;;
20324;SDS011;10320;49.482;11.256;2022-09-28T03:23:35;2.63;;;1.70;;
20324;SDS011;10320;49.482;11.256;2022-09-28T03:26:01;2.27;;;1.67;;
20324;SDS011;10320;49.482;11.256;2022-09-28T03:28:27;3.50;;;1.63;;
20324;SDS011;10320;49.482;11.256;2022-09-28T03:30:53;2.20;;;1.70;;
20324;SDS011;10320;49.482;11.256;2022-09-28T03:33:20;1.83;;;1.60;;
20324;SDS011;10320;49.482;11.256;2022-09-28T03:35:46;2.47;;;1.80;;
20324;SDS011;10320;49.482;11.256;2022-09-28T03:38:12;2.00;;;1.70;;
20324;SDS011;10320;49.482;11.256;2022-09-28T03:40:38;3.20;;;1.80;;
20324;SDS011;10320;49.482;11.256;2022-09-28T03:43:04;1.83;;;1.60;;
20324;SDS011;10320;49.482;11.256;2022-09-28T03:45:30;2.33;;;1.70;;
20324;SDS011;10320;49.482;11.256;2022-09-28T03:47:56;1.80;;;1.70;;
20324;SDS011;10320;49.482;11.256;2022-09-28T03:50:23;2.03;;;1.50;;
20324;SDS011;10320;49.482;11.256;2022-09-28T03:52:49;3.53;;;1.80;;
20324;SDS011;10320;49.482;11.256;2022-09-28T03:55:15;3.07;;;2.00;;
20324;SDS011;10320;49.482;11.256;2022-09-28T03:57:41;2.67;;;1.93;;
20324;SDS011;10320;49.482;11.256;2022-09-28T04:00:07;2.00;;;1.80;;
20324;SDS011;10320;49.482;11.256;2022-09-28T04:02:33;2.97;;;2.20;;
20324;SDS011;10320;49.482;11.256;2022-09-28T04:04:59;3.70;;;2.30;;
20324;SDS011;10320;49.482;11.256;2022-09-28T04:07:25;4.63;;;2.50;;
20324;SDS011;10320;49.482;11.256;2022-09-28T04:09:51;3.60;;;2.50;;
20324;SDS011;10320;49.482;11.256;2022-09-28T04:12:17;5.10;;;3.43;;
20324;SDS011;10320;49.482;11.256;2022-09-28T04:14:43;5.97;;;3.50;;
20324;SDS011;10320;49.482;11.256;2022-09-28T04:17:09;5.60;;;3.53;;
20324;SDS011;10320;49.482;11.256;2022-09-28T04:19:35;5.70;;;3.73;;
20324;SDS011;10320;49.482;11.256;2022-09-28T04:22:01;5.67;;;2.90;;
20324;SDS011;10320;49.482;11.256;2022-09-28T04:24:28;3.50;;;2.60;;
20324;SDS011;10320;49.482;11.256;2022-09-28T04:26:54;2.90;;;2.70;;
20324;SDS011;10320;49.482;11.256;2022-09-28T04:29:40;3.30;;;2.40;;
20324;SDS011;10320;49.482;11.256;2022-09-28T04:32:07;2.83;;;2.20;;
20324;SDS011;10320;49.482;11.256;2022-09-28T04:34:33;2.83;;;2.30;;
20324;SDS011;10320;49.482;11.256;2022-09-28T04:36:59;3.63;;;2.40;;
20324;SDS011;10320;49.482;11.256;2022-09-28T04:39:25;3.53;;;2.43;;
20324;SDS011;10320;49.482;11.256;2022-09-28T04:41:51;3.50;;;2.60;;
20324;SDS011;10320;49.482;11.256;2022-09-28T04:44:17;3.13;;;2.30;;
20324;SDS011;10320;49.482;11.256;2022-09-28T04:46:43;2.90;;;2.53;;
20324;SDS011;10320;49.482;11.256;2022-09-28T04:49:09;2.83;;;2.40;;
20324;SDS011;10320;49.482;11.256;2022-09-28T04:51:35;2.40;;;2.20;;
20324;SDS011;10320;49.482;11.256;2022-09-28T04:54:01;3.70;;;2.70;;
20324;SDS011;10320;49.482;11.256;2022-09-28T04:56:27;3.00;;;2.70;;
20324;SDS011;10320;49.482;11.256;2022-09-28T04:58:53;2.77;;;2.30;;
20324;SDS011;10320;49.482;11.256;2022-09-28T05:01:19;3.17;;;2.73;;
20324;SDS011;10320;49.482;11.256;2022-09-28T05:03:47;4.23;;;2.80;;
20324;SDS011;10320;49.482;11.256;2022-09-28T05:06:14;3.80;;;2.93;;
20324;SDS011;10320;49.482;11.256;2022-09-28T05:08:40;3.87;;;2.60;;
20324;SDS011;10320;49.482;11.256;2022-09-28T05:11:07;3.30;;;2.90;;
20324;SDS011;10320;49.482;11.256;2022-09-28T05:13:38;3.00;;;2.70;;
20324;SDS011;10320;49.482;11.256;2022-09-28T05:16:08;3.07;;;2.50;;
20324;SDS011;10320;49.482;11.256;2022-09-28T05:18:34;3.30;;;2.67;;
20324;SDS011;10320;49.482;11.256;2022-09-28T05:21:00;2.33;;;2.10;;
20324;SDS011;10320;49.482;11.256;2022-09-28T05:23:26;2.43;;;2.20;;
20324;SDS011;10320;49.482;11.256;2022-09-28T05:25:52;4.57;;;2.50;;
20324;SDS011;10320;49.482;11.256;2022-09-28T05:28:19;2.90;;;1.93;;
20324;SDS011;10320;49.482;11.256;2022-09-28T05:30:47;2.73;;;1.80;;
20324;SDS011;10320;49.482;11.256;2022-09-28T05:33:13;2.93;;;2.00;;
20324;SDS011;10320;49.482;11.256;2022-09-28T05:35:39;2.30;;;1.70;;
20324;SDS011;10320;49.482;11.256;2022-09-28T05:38:05;2.57;;;1.80;;
20324;SDS011;10320;49.482;11.256;2022-09-28T05:40:31;2.93;;;1.60;;
20324;SDS011;10320;49.482;11.256;2022-09-28T05:42:58;2.00;;;1.77;;
20324;SDS011;10320;49.482;11.256;2022-09-28T05:45:25;3.50;;;1.90;;
20324;SDS011;10320;49.482;11.256;2022-09-28T05:47:51;2.23;;;1.70;;
20324;SDS011;10320;49.482;11.256;2022-09-28T05:50:17;2.23;;;1.50;;
20324;SDS011;10320;49.482;11.256;2022-09-28T05:52:43;2.87;;;1.50;;
20324;SDS011;10320;49.482;11.256;2022-09-28T05:55:10;2.03;;;1.50;;
20324;SDS011;10320;49.482;11.256;2022-09-28T05:57:36;2.00;;;1.47;;
20324;SDS011;10320;49.482;11.256;2022-09-28T06:00:03;3.67;;;1.90;;
20324;SDS011;10320;49.482;11.256;2022-09-28T06:02:31;3.20;;;1.90;;
20324;SDS011;10320;49.482;11.256;2022-09-28T06:04:57;3.17;;;1.97;;
20324;SDS011;10320;49.482;11.256;2022-09-28T06:07:23;2.43;;;1.80;;
20324;SDS011;10320;49.482;11.256;2022-09-28T06:09:49;2.10;;;1.90;;
20324;SDS011;10320;49.482;11.256;2022-09-28T06:12:15;3.37;;;1.70;;
20324;SDS011;10320;49.482;11.256;2022-09-28T06:14:41;3.73;;;1.90;;
20324;SDS011;10320;49.482;11.256;2022-09-28T06:17:08;3.73;;;1.93;;
20324;SDS011;10320;49.482;11.256;2022-09-28T06:19:34;1.80;;;1.70;;
20324;SDS011;10320;49.482;11.256;2022-09-28T06:22:00;3.83;;;1.70;;
20324;SDS011;10320;49.482;11.256;2022-09-28T06:24:26;1.93;;;1.73;;
20324;SDS011;10320;49.482;11.256;2022-09-28T06:26:52;2.77;;;1.90;;
20324;SDS011;10320;49.482;11.256;2022-09-28T06:29:18;3.27;;;1.70;;
20324;SDS011;10320;49.482;11.256;2022-09-28T06:31:45;2.73;;;2.17;;
20324;SDS011;10320;49.482;11.256;2022-09-28T06:34:11;1.83;;;1.60;;
20324;SDS011;10320;49.482;11.256;2022-09-28T06:36:38;1.87;;;1.57;;
20324;SDS011;10320;49.482;11.256;2022-09-28T06:39:04;2.80;;;1.77;;
20324;SDS011;10320;49.482;11.256;2022-09-28T06:41:30;3.53;;;2.00;;
20324;SDS011;10320;49.482;11.256;2022-09-28T06:43:56;3.33;;;2.43;;
20324;SDS011;10320;49.482;11.256;2022-09-28T06:46:22;2.77;;;2.20;;
20324;SDS011;10320;49.482;11.256;2022-09-28T06:48:49;4.40;;;2.20;;
20324;SDS011;10320;49.482;11.256;2022-09-28T06:51:15;2.83;;;2.07;;
20324;SDS011;10320;49.482;11.256;2022-09-28T06:53:41;2.97;;;2.13;;
20324;SDS011;10320;49.482;11.256;2022-09-28T06:56:08;3.03;;;1.77;;
20324;SDS011;10320;49.482;11.256;2022-09-28T06:58:34;2.30;;;1.50;;
20324;SDS011;10320;49.482;11.256;2022-09-28T07:01:00;2.93;;;1.83;;
20324;SDS011;10320;49.482;11.256;2022-09-28T07:03:26;2.33;;;1.70;;
20324;SDS011;10320;49.482;11.256;2022-09-28T07:05:53;2.10;;;1.53;;
20324;SDS011;10320;49.482;11.256;2022-09-28T07:08:21;2.67;;;1.50;;
20324;SDS011;10320;49.482;11.256;2022-09-28T07:10:48;2.80;;;1.80;;
20324;SDS011;10320;49.482;11.256;2022-09-28T07:13:20;2.50;;;1.63;;
20324;SDS011;10320;49.482;11.256;2022-09-28T07:15:55;2.10;;;1.70;;
20324;SDS011;10320;49.482;11.256;2022-09-28T07:18:21;2.10;;;1.50;;
20324;SDS011;10320;49.482;11.256;2022-09-28T07:20:48;2.70;;;1.53;;
20324;SDS011;10320;49.482;11.256;2022-09-28T07:23:13;2.83;;;2.03;;
20324;SDS011;10320;49.482;11.256;2022-09-28T07:25:39;3.03;;;1.90;;
20324;SDS011;10320;49.482;11.256;2022-09-28T07:28:09;2.53;;;1.70;;
20324;SDS011;10320;49.482;11.256;2022-09-28T07:30:36;3.30;;;2.00;;
20324;SDS011;10320;49.482;11.256;2022-09-28T07:33:02;3.07;;;2.47;;
20324;SDS011;10320;49.482;11.256;2022-09-28T07:35:30;3.00;;;2.13;;
20324;SDS011;10320;49.482;11.256;2022-09-28T07:38:05;2.60;;;1.97;;
20324;SDS011;10320;49.482;11.256;2022-09-28T07:40:32;2.00;;;1.63;;
20324;SDS011;10320;49.482;11.256;2022-09-28T07:43:18;2.57;;;2.10;;
20324;SDS011;10320;49.482;11.256;2022-09-28T07:45:47;3.23;;;1.90;;
20324;SDS011;10320;49.482;11.256;2022-09-28T07:48:14;2.47;;;2.07;;
20324;SDS011;10320;49.482;11.256;2022-09-28T07:50:41;3.47;;;2.00;;
20324;SDS011;10320;49.482;11.256;2022-09-28T07:53:11;2.40;;;2.20;;
20324;SDS011;10320;49.482;11.256;2022-09-28T07:55:37;2.37;;;2.10;;
20324;SDS011;10320;49.482;11.256;2022-09-28T07:58:02;1.80;;;1.70;;
20324;SDS011;10320;49.482;11.256;2022-09-28T08:00:28;2.07;;;1.70;;
20324;SDS011;10320;49.482;11.256;2022-09-28T08:02:58;3.30;;;1.73;;
20324;SDS011;10320;49.482;11.256;2022-09-28T08:05:25;2.30;;;1.80;;
20324;SDS011;10320;49.482;11.256;2022-09-28T08:07:56;2.87;;;1.70;;
20324;SDS011;10320;49.482;11.256;2022-09-28T08:10:24;2.00;;;1.73;;
20324;SDS011;10320;49.482;11.256;2022-09-28T08:12:54;2.00;;;1.83;;
20324;SDS011;10320;49.482;11.256;2022-09-28T08:15:20;1.60;;;1.50;;
20324;SDS011;10320;49.482;11.256;2022-09-28T08:17:46;1.37;;;1.27;;
20324;SDS011;10320;49.482;11.256;2022-09-28T08:20:13;2.37;;;1.60;;
20324;SDS011;10320;49.482;11.256;2022-09-28T08:23:03;2.53;;;1.50;;
20324;SDS011;10320;49.482;11.256;2022-09-28T08:25:29;2.77;;;1.70;;
20324;SDS011;10320;49.482;11.256;2022-09-28T08:27:55;2.20;;;1.30;;
20324;SDS011;10320;49.482;11.256;2022-09-28T08:30:21;1.13;;;1.03;;
20324;SDS011;10320;49.482;11.256;2022-09-28T08:32:47;1.43;;;1.20;;
20324;SDS011;10320;49.482;11.256;2022-09-28T08:35:15;1.63;;;1.40;;
20324;SDS011;10320;49.482;11.256;2022-09-28T08:37:41;1.80;;;1.40;;
20324;SDS011;10320;49.482;11.256;2022-09-28T08:40:15;3.13;;;1.50;;
20324;SDS011;10320;49.482;11.256;2022-09-28T08:42:44;2.30;;;1.70;;
20324;SDS011;10320;49.482;11.256;2022-09-28T08:45:13;1.40;;;1.30;;
20324;SDS011;10320;49.482;11.256;2022-09-28T08:50:44;2.20;;;1.60;;
20324;SDS011;10320;49.482;11.256;2022-09-28T08:56:36;1.80;;;1.70;;
20324;SDS011;10320;49.482;11.256;2022-09-28T08:59:13;2.00;;;1.80;;
20324;SDS011;10320;49.482;11.256;2022-09-28T09:01:49;2.50;;;1.80;;
20324;SDS011;10320;49.482;11.256;2022-09-28T09:04:22;1.87;;;1.60;;
20324;SDS011;10320;49.482;11.256;2022-09-28T09:09:55;1.87;;;1.60;;
20324;SDS011;10320;49.482;11.256;2022-09-28T09:12:43;1.73;;;1.57;;
20324;SDS011;10320;49.482;11.256;2022-09-28T09:15:15;1.87;;;1.50;;
20324;SDS011;10320;49.482;11.256;2022-09-28T09:23:37;1.63;;;1.47;;
20324;SDS011;10320;49.482;11.256;2022-09-28T09:40:33;1.40;;;1.30;;
20324;SDS011;10320;49.482;11.256;2022-09-28T09:49:00;2.43;;;1.30;;
20324;SDS011;10320;49.482;11.256;2022-09-28T09:51:36;1.03;;;1.00;;
20324;SDS011;10320;49.482;11.256;2022-09-28T09:57:29;1.60;;;1.30;;
20324;SDS011;10320;49.482;11.256;2022-09-28T09:59:41;1.60;;;1.50;;
20324;SDS011;10320;49.482;11.256;2022-09-28T10:02:11;1.30;;;1.20;;
20324;SDS011;10320;49.482;11.256;2022-09-28T10:04:52;1.30;;;1.20;;
20324;SDS011;10320;49.482;11.256;2022-09-28T10:08:12;1.23;;;1.13;;
20324;SDS011;10320;49.482;11.256;2022-09-28T10:10:16;1.20;;;1.10;;
20324;SDS011;10320;49.482;11.256;2022-09-28T10:12:48;2.00;;;1.10;;
20324;SDS011;10320;49.482;11.256;2022-09-28T10:15:16;1.47;;;1.10;;
20324;SDS011;10320;49.482;11.256;2022-09-28T10:17:47;1.67;;;1.20;;
20324;SDS011;10320;49.482;11.256;2022-09-28T10:20:13;0.83;;;0.83;;
20324;SDS011;10320;49.482;11.256;2022-09-28T10:22:40;1.10;;;1.00;;
20324;SDS011;10320;49.482;11.256;2022-09-28T10:25:07;1.00;;;1.00;;
20324;SDS011;10320;49.482;11.256;2022-09-28T10:27:34;1.80;;;1.10;;
20324;SDS011;10320;49.482;11.256;2022-09-28T10:32:46;1.23;;;0.90;;
20324;SDS011;10320;49.482;11.256;2022-09-28T10:37:49;1.27;;;1.00;;
20324;SDS011;10320;49.482;11.256;2022-09-28T10:40:29;1.47;;;0.90;;
20324;SDS011;10320;49.482;11.256;2022-09-28T10:43:23;0.97;;;0.90;;
20324;SDS011;10320;49.482;11.256;2022-09-28T10:46:11;0.73;;;0.73;;
20324;SDS011;10320;49.482;11.256;2022-09-28T10:51:09;0.80;;;0.70;;
20324;SDS011;10320;49.482;11.256;2022-09-28T10:53:35;0.67;;;0.67;;
20324;SDS011;10320;49.482;11.256;2022-09-28T10:58:35;0.70;;;0.70;;
20324;SDS011;10320;49.482;11.256;2022-09-28T11:01:05;1.33;;;0.70;;
20324;SDS011;10320;49.482;11.256;2022-09-28T11:03:50;2.30;;;1.00;;
20324;SDS011;10320;49.482;11.256;2022-09-28T11:09:01;0.80;;;0.63;;
20324;SDS011;10320;49.482;11.256;2022-09-28T11:11:28;1.23;;;0.70;;
20324;SDS011;10320;49.482;11.256;2022-09-28T11:13:56;1.30;;;0.77;;
20324;SDS011;10320;49.482;11.256;2022-09-28T11:16:32;1.47;;;0.90;;
20324;SDS011;10320;49.482;11.256;2022-09-28T11:19:04;2.63;;;0.83;;
20324;SDS011;10320;49.482;11.256;2022-09-28T11:21:42;2.03;;;0.90;;
20324;SDS011;10320;49.482;11.256;2022-09-28T11:24:20;0.97;;;0.83;;
20324;SDS011;10320;49.482;11.256;2022-09-28T11:26:51;1.07;;;0.90;;
20324;SDS011;10320;49.482;11.256;2022-09-28T11:32:10;1.63;;;0.70;;
20324;SDS011;10320;49.482;11.256;2022-09-28T11:34:41;1.23;;;0.70;;
20324;SDS011;10320;49.482;11.256;2022-09-28T11:48:21;2.27;;;1.20;;
20324;SDS011;10320;49.482;11.256;2022-09-28T11:50:56;2.53;;;1.20;;
20324;SDS011;10320;49.482;11.256;2022-09-28T11:53:35;2.13;;;1.17;;
20324;SDS011;10320;49.482;11.256;2022-09-28T12:01:48;1.80;;;1.17;;
20324;SDS011;10320;49.482;11.256;2022-09-28T12:06:56;1.20;;;0.70;;
20324;SDS011;10320;49.482;11.256;2022-09-28T12:09:29;0.90;;;0.80;;
20324;SDS011;10320;49.482;11.256;2022-09-28T12:11:57;2.00;;;0.83;;
20324;SDS011;10320;49.482;11.256;2022-09-28T12:14:26;2.33;;;1.10;;
20324;SDS011;10320;49.482;11.256;2022-09-28T12:17:09;1.30;;;0.80;;
20324;SDS011;10320;49.482;11.256;2022-09-28T12:22:23;1.47;;;0.60;;
20324;SDS011;10320;49.482;11.256;2022-09-28T12:24:51;2.63;;;1.13;;
20324;SDS011;10320;49.482;11.256;2022-09-28T12:32:55;2.80;;;0.90;;
20324;SDS011;10320;49.482;11.256;2022-09-28T12:38:34;1.30;;;1.00;;
20324;SDS011;10320;49.482;11.256;2022-09-28T12:41:08;1.23;;;0.73;;
20324;SDS011;10320;49.482;11.256;2022-09-28T12:46:44;1.20;;;0.60;;
20324;SDS011;10320;49.482;11.256;2022-09-28T12:51:51;1.27;;;0.70;;
20324;SDS011;10320;49.482;11.256;2022-09-28T12:54:25;2.80;;;0.80;;
20324;SDS011;10320;49.482;11.256;2022-09-28T12:56:56;1.10;;;0.90;;
20324;SDS011;10320;49.482;11.256;2022-09-28T12:59:36;1.00;;;0.70;;
20324;SDS011;10320;49.482;11.256;2022-09-28T13:05:12;2.40;;;0.80;;
20324;SDS011;10320;49.482;11.256;2022-09-28T13:12:40;1.57;;;0.90;;
20324;SDS011;10320;49.482;11.256;2022-09-28T13:22:35;1.33;;;0.70;;
20324;SDS011;10320;49.482;11.256;2022-09-28T13:25:03;1.10;;;0.70;;
20324;SDS011;10320;49.482;11.256;2022-09-28T13:27:39;2.53;;;0.80;;
20324;SDS011;10320;49.482;11.256;2022-09-28T13:30:06;1.53;;;0.80;;
20324;SDS011;10320;49.482;11.256;2022-09-28T13:32:33;1.00;;;0.90;;
20324;SDS011;10320;49.482;11.256;2022-09-28T13:35:00;0.70;;;0.70;;
20324;SDS011;10320;49.482;11.256;2022-09-28T13:37:26;1.97;;;0.80;;
20324;SDS011;10320;49.482;11.256;2022-09-28T13:39:54;1.07;;;0.90;;
20324;SDS011;10320;49.482;11.256;2022-09-28T13:42:27;1.10;;;0.70;;
20324;SDS011;10320;49.482;11.256;2022-09-28T13:53:19;2.37;;;0.80;;
20324;SDS011;10320;49.482;11.256;2022-09-28T13:58:35;0.87;;;0.63;;
20324;SDS011;10320;49.482;11.256;2022-09-28T14:01:03;1.10;;;0.93;;
20324;SDS011;10320;49.482;11.256;2022-09-28T14:16:24;1.83;;;1.10;;
20324;SDS011;10320;49.482;11.256;2022-09-28T14:21:39;2.27;;;1.10;;
20324;SDS011;10320;49.482;11.256;2022-09-28T14:29:19;2.87;;;0.90;;
20324;SDS011;10320;49.482;11.256;2022-09-28T14:31:52;3.03;;;1.00;;
20324;SDS011;10320;49.482;11.256;2022-09-28T14:34:35;2.37;;;0.90;;
20324;SDS011;10320;49.482;11.256;2022-09-28T14:37:04;1.53;;;0.90;;
20324;SDS011;10320;49.482;11.256;2022-09-28T14:39:49;1.63;;;0.90;;
20324;SDS011;10320;49.482;11.256;2022-09-28T14:42:34;2.57;;;0.97;;
20324;SDS011;10320;49.482;11.256;2022-09-28T14:47:37;1.93;;;1.03;;
20324;SDS011;10320;49.482;11.256;2022-09-28T14:52:48;2.27;;;0.90;;
20324;SDS011;10320;49.482;11.256;2022-09-28T14:55:16;3.77;;;0.90;;
20324;SDS011;10320;49.482;11.256;2022-09-28T14:57:43;2.40;;;0.87;;
20324;SDS011;10320;49.482;11.256;2022-09-28T15:00:19;1.50;;;1.00;;
20324;SDS011;10320;49.482;11.256;2022-09-28T15:02:49;1.70;;;1.03;;
20324;SDS011;10320;49.482;11.256;2022-09-28T15:07:46;2.33;;;0.97;;
20324;SDS011;10320;49.482;11.256;2022-09-28T15:10:29;2.30;;;1.20;;
20324;SDS011;10320;49.482;11.256;2022-09-28T15:12:57;2.13;;;1.10;;
20324;SDS011;10320;49.482;11.256;2022-09-28T15:15:34;1.20;;;1.00;;
20324;SDS011;10320;49.482;11.256;2022-09-28T15:20:35;3.53;;;1.07;;
20324;SDS011;10320;49.482;11.256;2022-09-28T15:23:02;2.57;;;1.60;;
20324;SDS011;10320;49.482;11.256;2022-09-28T15:25:29;3.97;;;1.60;;
20324;SDS011;10320;49.482;11.256;2022-09-28T15:28:12;1.73;;;1.40;;
20324;SDS011;10320;49.482;11.256;2022-09-28T15:30:41;3.17;;;1.40;;
20324;SDS011;10320;49.482;11.256;2022-09-28T15:33:20;1.73;;;1.20;;
20324;SDS011;10320;49.482;11.256;2022-09-28T15:36:05;2.23;;;1.23;;
20324;SDS011;10320;49.482;11.256;2022-09-28T15:38:32;1.73;;;1.10;;
20324;SDS011;10320;49.482;11.256;2022-09-28T15:41:02;2.23;;;1.40;;
20324;SDS011;10320;49.482;11.256;2022-09-28T15:43:30;3.37;;;1.40;;
20324;SDS011;10320;49.482;11.256;2022-09-28T15:48:30;2.33;;;1.40;;
20324;SDS011;10320;49.482;11.256;2022-09-28T15:51:10;3.60;;;1.23;;
20324;SDS011;10320;49.482;11.256;2022-09-28T15:53:40;2.87;;;1.33;;
20324;SDS011;10320;49.482;11.256;2022-09-28T15:56:07;2.63;;;1.20;;
20324;SDS011;10320;49.482;11.256;2022-09-28T15:58:36;2.83;;;1.57;;
20324;SDS011;10320;49.482;11.256;2022-09-28T16:03:48;2.53;;;1.30;;
20324;SDS011;10320;49.482;11.256;2022-09-28T16:06:14;3.90;;;1.90;;
20324;SDS011;10320;49.482;11.256;2022-09-28T16:14:18;3.67;;;1.83;;
20324;SDS011;10320;49.482;11.256;2022-09-28T16:16:48;2.47;;;1.30;;
20324;SDS011;10320;49.482;11.256;2022-09-28T16:19:27;1.67;;;1.37;;
20324;SDS011;10320;49.482;11.256;2022-09-28T16:21:54;2.00;;;1.17;;
20324;SDS011;10320;49.482;11.256;2022-09-28T16:26:54;1.80;;;1.27;;
20324;SDS011;10320;49.482;11.256;2022-09-28T16:29:25;2.33;;;1.30;;
20324;SDS011;10320;49.482;11.256;2022-09-28T16:31:52;2.47;;;1.50;;
20324;SDS011;10320;49.482;11.256;2022-09-28T16:34:19;4.33;;;1.43;;
20324;SDS011;10320;49.482;11.256;2022-09-28T16:36:48;2.57;;;1.67;;
20324;SDS011;10320;49.482;11.256;2022-09-28T16:39:15;2.50;;;1.60;;
20324;SDS011;10320;49.482;11.256;2022-09-28T16:41:43;1.53;;;1.43;;
20324;SDS011;10320;49.482;11.256;2022-09-28T16:44:12;3.00;;;1.93;;
20324;SDS011;10320;49.482;11.256;2022-09-28T16:46:39;3.20;;;2.10;;
20324;SDS011;10320;49.482;11.256;2022-09-28T16:49:05;6.83;;;3.07;;
20324;SDS011;10320;49.482;11.256;2022-09-28T16:51:32;6.83;;;2.40;;
20324;SDS011;10320;49.482;11.256;2022-09-28T16:57:02;4.57;;;2.10;;
20324;SDS011;10320;49.482;11.256;2022-09-28T16:59:29;3.50;;;2.17;;
20324;SDS011;10320;49.482;11.256;2022-09-28T17:01:55;4.30;;;2.20;;
20324;SDS011;10320;49.482;11.256;2022-09-28T17:04:24;3.77;;;2.07;;
20324;SDS011;10320;49.482;11.256;2022-09-28T17:06:51;3.03;;;2.20;;
20324;SDS011;10320;49.482;11.256;2022-09-28T17:09:21;3.70;;;2.00;;
20324;SDS011;10320;49.482;11.256;2022-09-28T17:11:47;4.13;;;2.77;;
20324;SDS011;10320;49.482;11.256;2022-09-28T17:14:20;3.93;;;3.53;;
20324;SDS011;10320;49.482;11.256;2022-09-28T17:16:47;4.03;;;3.50;;
20324;SDS011;10320;49.482;11.256;2022-09-28T17:19:18;4.10;;;3.00;;
20324;SDS011;10320;49.482;11.256;2022-09-28T17:21:44;4.50;;;2.87;;
20324;SDS011;10320;49.482;11.256;2022-09-28T17:24:10;4.40;;;3.20;;
20324;SDS011;10320;49.482;11.256;2022-09-28T17:26:37;3.47;;;2.67;;
20324;SDS011;10320;49.482;11.256;2022-09-28T17:29:03;3.33;;;2.60;;
20324;SDS011;10320;49.482;11.256;2022-09-28T17:31:32;4.27;;;2.40;;
20324;SDS011;10320;49.482;11.256;2022-09-28T17:33:59;4.60;;;2.80;;
20324;SDS011;10320;49.482;11.256;2022-09-28T17:36:25;3.07;;;2.40;;
20324;SDS011;10320;49.482;11.256;2022-09-28T17:38:51;4.83;;;2.93;;
20324;SDS011;10320;49.482;11.256;2022-09-28T17:41:17;6.50;;;3.63;;
20324;SDS011;10320;49.482;11.256;2022-09-28T17:43:44;5.03;;;4.50;;
20324;SDS011;10320;49.482;11.256;2022-09-28T17:48:43;6.07;;;5.47;;
20324;SDS011;10320;49.482;11.256;2022-09-28T17:51:11;8.70;;;7.70;;
20324;SDS011;10320;49.482;11.256;2022-09-28T17:53:38;9.90;;;8.90;;
20324;SDS011;10320;49.482;11.256;2022-09-28T17:56:04;12.03;;;10.80;;
20324;SDS011;10320;49.482;11.256;2022-09-28T17:58:30;20.40;;;18.53;;
20324;SDS011;10320;49.482;11.256;2022-09-28T18:00:56;18.07;;;16.33;;